sensor_id;sensor_type;location;lat;lon;timestamp;P1;durP1;ratioP1;P2;durP2;ratioP2
10311;SDS011;5201;48.776;9.128;2023-04-29T00:00:22;1.13;;;0.77;;
10311;SDS011;5201;48.776;9.128;2023-04-29T00:02:47;1.30;;;1.20;;
10311;SDS011;5201;48.776;9.128;2023-04-29T00:05:13;3.60;;;0.90;;
10311;SDS011;5201;48.776;9.128;2023-04-29T00:07:38;1.87;;;1.00;;
10311;SDS011;5201;48.776;9.128;2023-04-29T00:10:04;2.30;;;0.80;;
10311;SDS011;5201;48.776;9.128;2023-04-29T00:12:30;1.83;;;1.20;;
10311;SDS011;5201;48.776;9.128;2023-04-29T00:14:58;0.87;;;0.87;;
10311;SDS011;5201;48.776;9.128;2023-04-29T00:17:24;1.40;;;0.90;;
10311;SDS011;5201;48.776;9.128;2023-04-29T00:19:50;1.77;;;1.47;;
10311;SDS011;5201;48.776;9.128;2023-04-29T00:22:16;3.67;;;0.90;;
10311;SDS011;5201;48.776;9.128;2023-04-29T00:24:41;0.77;;;0.67;;
10311;SDS011;5201;48.776;9.128;2023-04-29T00:27:07;1.17;;;0.90;;
10311;SDS011;5201;48.776;9.128;2023-04-29T00:29:33;1.17;;;1.07;;
10311;SDS011;5201;48.776;9.128;2023-04-29T00:31:58;1.33;;;1.00;;
10311;SDS011;5201;48.776;9.128;2023-04-29T00:34:24;1.23;;;1.07;;
10311;SDS011;5201;48.776;9.128;2023-04-29T00:36:49;1.20;;;1.10;;
10311;SDS011;5201;48.776;9.128;2023-04-29T00:39:15;2.60;;;1.00;;
10311;SDS011;5201;48.776;9.128;2023-04-29T00:41:40;1.33;;;0.97;;
10311;SDS011;5201;48.776;9.128;2023-04-29T00:44:06;1.87;;;1.03;;
10311;SDS011;5201;48.776;9.128;2023-04-29T00:46:32;1.00;;;1.00;;
10311;SDS011;5201;48.776;9.128;2023-04-29T00:48:58;2.73;;;0.80;;
10311;SDS011;5201;48.776;9.128;2023-04-29T00:51:25;2.07;;;0.90;;
10311;SDS011;5201;48.776;9.128;2023-04-29T00:53:51;2.30;;;1.27;;
10311;SDS011;5201;48.776;9.128;2023-04-29T00:56:17;3.37;;;1.30;;
10311;SDS011;5201;48.776;9.128;2023-04-29T00:58:45;1.23;;;0.90;;
10311;SDS011;5201;48.776;9.128;2023-04-29T01:01:14;2.97;;;1.10;;
10311;SDS011;5201;48.776;9.128;2023-04-29T01:03:41;1.70;;;0.87;;
10311;SDS011;5201;48.776;9.128;2023-04-29T01:09:16;1.00;;;0.90;;
10311;SDS011;5201;48.776;9.128;2023-04-29T01:12:07;0.90;;;0.90;;
10311;SDS011;5201;48.776;9.128;2023-04-29T01:14:45;2.73;;;1.20;;
10311;SDS011;5201;48.776;9.128;2023-04-29T01:17:18;0.90;;;0.90;;
10311;SDS011;5201;48.776;9.128;2023-04-29T01:19:51;1.80;;;1.00;;
10311;SDS011;5201;48.776;9.128;2023-04-29T01:22:21;1.10;;;1.00;;
10311;SDS011;5201;48.776;9.128;2023-04-29T01:24:47;2.20;;;1.20;;
10311;SDS011;5201;48.776;9.128;2023-04-29T01:27:27;1.83;;;1.00;;
10311;SDS011;5201;48.776;9.128;2023-04-29T01:30:17;0.93;;;0.93;;
10311;SDS011;5201;48.776;9.128;2023-04-29T01:44:15;1.20;;;1.03;;
10311;SDS011;5201;48.776;9.128;2023-04-29T01:46:49;1.40;;;1.20;;
10311;SDS011;5201;48.776;9.128;2023-04-29T01:49:19;1.47;;;1.00;;
10311;SDS011;5201;48.776;9.128;2023-04-29T01:51:45;3.03;;;1.10;;
10311;SDS011;5201;48.776;9.128;2023-04-29T01:54:10;1.73;;;1.30;;
10311;SDS011;5201;48.776;9.128;2023-04-29T01:56:36;1.30;;;1.20;;
10311;SDS011;5201;48.776;9.128;2023-04-29T01:59:02;4.47;;;1.30;;
10311;SDS011;5201;48.776;9.128;2023-04-29T02:01:27;0.90;;;0.90;;
10311;SDS011;5201;48.776;9.128;2023-04-29T02:03:53;0.90;;;0.90;;
10311;SDS011;5201;48.776;9.128;2023-04-29T02:06:19;1.53;;;1.13;;
10311;SDS011;5201;48.776;9.128;2023-04-29T02:08:44;1.60;;;1.20;;
10311;SDS011;5201;48.776;9.128;2023-04-29T02:11:10;1.30;;;1.20;;
10311;SDS011;5201;48.776;9.128;2023-04-29T02:13:35;1.40;;;1.30;;
10311;SDS011;5201;48.776;9.128;2023-04-29T02:16:11;2.27;;;1.10;;
10311;SDS011;5201;48.776;9.128;2023-04-29T02:18:37;1.53;;;1.10;;
10311;SDS011;5201;48.776;9.128;2023-04-29T02:21:04;1.77;;;0.77;;
10311;SDS011;5201;48.776;9.128;2023-04-29T02:23:30;2.77;;;1.07;;
10311;SDS011;5201;48.776;9.128;2023-04-29T02:25:56;1.00;;;0.90;;
10311;SDS011;5201;48.776;9.128;2023-04-29T02:28:22;0.97;;;0.93;;
10311;SDS011;5201;48.776;9.128;2023-04-29T02:30:48;1.07;;;1.00;;
10311;SDS011;5201;48.776;9.128;2023-04-29T02:33:13;1.20;;;1.03;;
10311;SDS011;5201;48.776;9.128;2023-04-29T02:35:40;2.30;;;1.20;;
10311;SDS011;5201;48.776;9.128;2023-04-29T02:38:05;1.07;;;0.97;;
10311;SDS011;5201;48.776;9.128;2023-04-29T02:40:31;2.77;;;1.20;;
10311;SDS011;5201;48.776;9.128;2023-04-29T02:42:57;1.67;;;1.33;;
10311;SDS011;5201;48.776;9.128;2023-04-29T02:45:23;1.03;;;1.03;;
10311;SDS011;5201;48.776;9.128;2023-04-29T02:47:48;4.67;;;1.27;;
10311;SDS011;5201;48.776;9.128;2023-04-29T02:50:14;4.50;;;0.93;;
10311;SDS011;5201;48.776;9.128;2023-04-29T02:52:39;0.90;;;0.90;;
10311;SDS011;5201;48.776;9.128;2023-04-29T02:55:08;1.83;;;1.03;;
10311;SDS011;5201;48.776;9.128;2023-04-29T02:57:33;1.70;;;1.17;;
10311;SDS011;5201;48.776;9.128;2023-04-29T02:59:59;1.70;;;1.10;;
10311;SDS011;5201;48.776;9.128;2023-04-29T03:02:25;1.83;;;1.27;;
10311;SDS011;5201;48.776;9.128;2023-04-29T03:04:51;2.40;;;1.10;;
10311;SDS011;5201;48.776;9.128;2023-04-29T03:07:17;2.13;;;1.17;;
10311;SDS011;5201;48.776;9.128;2023-04-29T03:09:42;1.97;;;1.40;;
10311;SDS011;5201;48.776;9.128;2023-04-29T03:12:08;1.53;;;1.40;;
10311;SDS011;5201;48.776;9.128;2023-04-29T03:14:33;4.53;;;1.37;;
10311;SDS011;5201;48.776;9.128;2023-04-29T03:17:00;1.47;;;1.00;;
10311;SDS011;5201;48.776;9.128;2023-04-29T03:19:26;4.07;;;1.27;;
10311;SDS011;5201;48.776;9.128;2023-04-29T03:21:51;1.17;;;1.10;;
10311;SDS011;5201;48.776;9.128;2023-04-29T03:24:17;1.50;;;1.40;;
10311;SDS011;5201;48.776;9.128;2023-04-29T03:26:42;5.17;;;2.07;;
10311;SDS011;5201;48.776;9.128;2023-04-29T03:29:08;2.00;;;1.80;;
10311;SDS011;5201;48.776;9.128;2023-04-29T03:31:34;1.27;;;1.17;;
10311;SDS011;5201;48.776;9.128;2023-04-29T03:33:59;1.57;;;1.27;;
10311;SDS011;5201;48.776;9.128;2023-04-29T03:36:25;5.37;;;1.57;;
10311;SDS011;5201;48.776;9.128;2023-04-29T03:38:50;1.50;;;1.40;;
10311;SDS011;5201;48.776;9.128;2023-04-29T03:41:16;1.67;;;1.47;;
10311;SDS011;5201;48.776;9.128;2023-04-29T03:43:42;1.70;;;1.57;;
10311;SDS011;5201;48.776;9.128;2023-04-29T03:46:08;1.50;;;1.40;;
10311;SDS011;5201;48.776;9.128;2023-04-29T03:48:34;1.30;;;1.17;;
10311;SDS011;5201;48.776;9.128;2023-04-29T03:51:00;2.13;;;1.53;;
10311;SDS011;5201;48.776;9.128;2023-04-29T03:53:26;1.87;;;1.50;;
10311;SDS011;5201;48.776;9.128;2023-04-29T03:55:52;1.97;;;1.60;;
10311;SDS011;5201;48.776;9.128;2023-04-29T03:58:17;1.20;;;1.20;;
10311;SDS011;5201;48.776;9.128;2023-04-29T04:00:43;2.53;;;1.63;;
10311;SDS011;5201;48.776;9.128;2023-04-29T04:03:09;1.47;;;1.37;;
10311;SDS011;5201;48.776;9.128;2023-04-29T04:05:34;3.73;;;1.30;;
10311;SDS011;5201;48.776;9.128;2023-04-29T04:08:00;1.77;;;1.67;;
10311;SDS011;5201;48.776;9.128;2023-04-29T04:10:25;1.37;;;1.27;;
10311;SDS011;5201;48.776;9.128;2023-04-29T04:12:52;2.77;;;1.53;;
10311;SDS011;5201;48.776;9.128;2023-04-29T04:15:18;3.10;;;1.40;;
10311;SDS011;5201;48.776;9.128;2023-04-29T04:17:43;2.10;;;1.60;;
10311;SDS011;5201;48.776;9.128;2023-04-29T04:20:09;1.67;;;1.30;;
10311;SDS011;5201;48.776;9.128;2023-04-29T04:22:35;3.83;;;1.50;;
10311;SDS011;5201;48.776;9.128;2023-04-29T04:25:02;8.43;;;2.13;;
10311;SDS011;5201;48.776;9.128;2023-04-29T04:27:28;5.03;;;1.40;;
10311;SDS011;5201;48.776;9.128;2023-04-29T04:29:54;4.60;;;1.30;;
10311;SDS011;5201;48.776;9.128;2023-04-29T04:32:23;2.50;;;2.03;;
10311;SDS011;5201;48.776;9.128;2023-04-29T04:34:49;3.43;;;1.53;;
10311;SDS011;5201;48.776;9.128;2023-04-29T04:37:15;3.03;;;2.83;;
10311;SDS011;5201;48.776;9.128;2023-04-29T04:39:41;1.53;;;1.30;;
10311;SDS011;5201;48.776;9.128;2023-04-29T04:42:07;3.87;;;1.27;;
10311;SDS011;5201;48.776;9.128;2023-04-29T04:44:32;1.87;;;1.50;;
10311;SDS011;5201;48.776;9.128;2023-04-29T04:46:58;1.70;;;1.60;;
10311;SDS011;5201;48.776;9.128;2023-04-29T04:49:26;1.83;;;1.73;;
10311;SDS011;5201;48.776;9.128;2023-04-29T04:51:52;1.70;;;1.30;;
10311;SDS011;5201;48.776;9.128;2023-04-29T04:54:18;3.43;;;1.40;;
10311;SDS011;5201;48.776;9.128;2023-04-29T04:56:44;2.73;;;1.50;;
10311;SDS011;5201;48.776;9.128;2023-04-29T04:59:10;2.70;;;1.60;;
10311;SDS011;5201;48.776;9.128;2023-04-29T05:01:35;6.07;;;1.50;;
10311;SDS011;5201;48.776;9.128;2023-04-29T05:04:01;4.03;;;2.03;;
10311;SDS011;5201;48.776;9.128;2023-04-29T05:06:27;1.83;;;1.73;;
10311;SDS011;5201;48.776;9.128;2023-04-29T05:08:53;2.80;;;1.70;;
10311;SDS011;5201;48.776;9.128;2023-04-29T05:11:19;4.40;;;1.60;;
10311;SDS011;5201;48.776;9.128;2023-04-29T05:13:46;2.17;;;1.63;;
10311;SDS011;5201;48.776;9.128;2023-04-29T05:16:12;3.30;;;1.60;;
10311;SDS011;5201;48.776;9.128;2023-04-29T05:18:37;3.00;;;1.60;;
10311;SDS011;5201;48.776;9.128;2023-04-29T05:21:03;1.73;;;1.63;;
10311;SDS011;5201;48.776;9.128;2023-04-29T05:23:29;3.23;;;1.43;;
10311;SDS011;5201;48.776;9.128;2023-04-29T05:25:55;3.17;;;1.97;;
10311;SDS011;5201;48.776;9.128;2023-04-29T05:28:20;2.70;;;2.17;;
10311;SDS011;5201;48.776;9.128;2023-04-29T05:30:46;1.50;;;1.40;;
10311;SDS011;5201;48.776;9.128;2023-04-29T05:33:14;2.20;;;2.00;;
10311;SDS011;5201;48.776;9.128;2023-04-29T05:35:40;5.43;;;1.50;;
10311;SDS011;5201;48.776;9.128;2023-04-29T05:38:05;1.63;;;1.47;;
10311;SDS011;5201;48.776;9.128;2023-04-29T05:40:31;1.57;;;1.47;;
10311;SDS011;5201;48.776;9.128;2023-04-29T05:42:56;2.87;;;1.80;;
10311;SDS011;5201;48.776;9.128;2023-04-29T05:45:22;3.10;;;2.20;;
10311;SDS011;5201;48.776;9.128;2023-04-29T05:47:48;4.43;;;2.10;;
10311;SDS011;5201;48.776;9.128;2023-04-29T05:50:14;1.90;;;1.80;;
10311;SDS011;5201;48.776;9.128;2023-04-29T05:52:39;1.60;;;1.50;;
10311;SDS011;5201;48.776;9.128;2023-04-29T05:55:05;5.03;;;2.00;;
10311;SDS011;5201;48.776;9.128;2023-04-29T05:57:31;2.73;;;1.80;;
10311;SDS011;5201;48.776;9.128;2023-04-29T05:59:57;4.40;;;2.43;;
10311;SDS011;5201;48.776;9.128;2023-04-29T06:02:24;3.93;;;2.03;;
10311;SDS011;5201;48.776;9.128;2023-04-29T06:04:50;2.30;;;2.10;;
10311;SDS011;5201;48.776;9.128;2023-04-29T06:07:15;1.90;;;1.80;;
10311;SDS011;5201;48.776;9.128;2023-04-29T06:09:42;4.10;;;1.90;;
10311;SDS011;5201;48.776;9.128;2023-04-29T06:12:08;3.13;;;2.10;;
10311;SDS011;5201;48.776;9.128;2023-04-29T06:14:35;2.77;;;2.20;;
10311;SDS011;5201;48.776;9.128;2023-04-29T06:17:00;2.37;;;2.20;;
10311;SDS011;5201;48.776;9.128;2023-04-29T06:19:26;2.47;;;2.10;;
10311;SDS011;5201;48.776;9.128;2023-04-29T06:21:52;3.20;;;3.00;;
10311;SDS011;5201;48.776;9.128;2023-04-29T06:24:17;3.07;;;2.77;;
10311;SDS011;5201;48.776;9.128;2023-04-29T06:26:43;3.00;;;2.70;;
10311;SDS011;5201;48.776;9.128;2023-04-29T06:29:08;4.33;;;2.40;;
10311;SDS011;5201;48.776;9.128;2023-04-29T06:31:34;3.63;;;2.70;;
10311;SDS011;5201;48.776;9.128;2023-04-29T06:34:00;2.47;;;2.27;;
10311;SDS011;5201;48.776;9.128;2023-04-29T06:36:25;3.90;;;2.63;;
10311;SDS011;5201;48.776;9.128;2023-04-29T06:38:52;2.90;;;2.60;;
10311;SDS011;5201;48.776;9.128;2023-04-29T06:41:17;3.63;;;2.87;;
10311;SDS011;5201;48.776;9.128;2023-04-29T06:43:43;2.93;;;2.73;;
10311;SDS011;5201;48.776;9.128;2023-04-29T06:46:09;3.73;;;2.57;;
10311;SDS011;5201;48.776;9.128;2023-04-29T06:48:35;2.67;;;2.47;;
10311;SDS011;5201;48.776;9.128;2023-04-29T06:51:01;2.77;;;2.57;;
10311;SDS011;5201;48.776;9.128;2023-04-29T06:53:26;2.20;;;2.00;;
10311;SDS011;5201;48.776;9.128;2023-04-29T06:55:52;3.77;;;1.93;;
10311;SDS011;5201;48.776;9.128;2023-04-29T06:58:18;4.00;;;1.87;;
10311;SDS011;5201;48.776;9.128;2023-04-29T07:00:44;2.93;;;1.77;;
10311;SDS011;5201;48.776;9.128;2023-04-29T07:03:12;5.20;;;1.93;;
10311;SDS011;5201;48.776;9.128;2023-04-29T07:05:38;1.60;;;1.50;;
10311;SDS011;5201;48.776;9.128;2023-04-29T07:08:05;1.10;;;1.00;;
10311;SDS011;5201;48.776;9.128;2023-04-29T07:10:32;3.87;;;1.10;;
10311;SDS011;5201;48.776;9.128;2023-04-29T07:12:57;1.00;;;1.00;;
10311;SDS011;5201;48.776;9.128;2023-04-29T07:15:24;1.03;;;1.03;;
10311;SDS011;5201;48.776;9.128;2023-04-29T07:17:50;1.00;;;1.00;;
10311;SDS011;5201;48.776;9.128;2023-04-29T07:20:16;1.70;;;1.10;;
10311;SDS011;5201;48.776;9.128;2023-04-29T07:22:41;2.07;;;1.27;;
10311;SDS011;5201;48.776;9.128;2023-04-29T07:25:07;0.80;;;0.80;;
10311;SDS011;5201;48.776;9.128;2023-04-29T07:27:34;1.00;;;0.90;;
10311;SDS011;5201;48.776;9.128;2023-04-29T07:30:00;0.70;;;0.70;;
10311;SDS011;5201;48.776;9.128;2023-04-29T07:32:27;1.63;;;0.80;;
10311;SDS011;5201;48.776;9.128;2023-04-29T07:34:52;0.90;;;0.60;;
10311;SDS011;5201;48.776;9.128;2023-04-29T07:37:18;2.67;;;0.80;;
10311;SDS011;5201;48.776;9.128;2023-04-29T07:39:44;2.67;;;0.70;;
10311;SDS011;5201;48.776;9.128;2023-04-29T07:42:10;0.97;;;0.80;;
10311;SDS011;5201;48.776;9.128;2023-04-29T07:44:35;0.70;;;0.70;;
10311;SDS011;5201;48.776;9.128;2023-04-29T07:47:01;6.07;;;0.80;;
10311;SDS011;5201;48.776;9.128;2023-04-29T07:49:27;1.77;;;1.03;;
10311;SDS011;5201;48.776;9.128;2023-04-29T07:51:52;3.13;;;1.20;;
10311;SDS011;5201;48.776;9.128;2023-04-29T07:54:18;2.93;;;1.30;;
10311;SDS011;5201;48.776;9.128;2023-04-29T07:56:44;1.10;;;1.00;;
10311;SDS011;5201;48.776;9.128;2023-04-29T07:59:10;1.20;;;1.10;;
10311;SDS011;5201;48.776;9.128;2023-04-29T08:01:36;2.43;;;1.20;;
10311;SDS011;5201;48.776;9.128;2023-04-29T08:04:02;1.50;;;1.23;;
10311;SDS011;5201;48.776;9.128;2023-04-29T08:06:27;2.23;;;1.10;;
10311;SDS011;5201;48.776;9.128;2023-04-29T08:08:54;3.60;;;1.50;;
10311;SDS011;5201;48.776;9.128;2023-04-29T08:11:20;1.77;;;1.23;;
10311;SDS011;5201;48.776;9.128;2023-04-29T08:13:48;1.17;;;1.00;;
10311;SDS011;5201;48.776;9.128;2023-04-29T08:16:14;1.67;;;1.30;;
10311;SDS011;5201;48.776;9.128;2023-04-29T08:18:40;4.20;;;1.13;;
10311;SDS011;5201;48.776;9.128;2023-04-29T08:21:06;1.83;;;1.27;;
10311;SDS011;5201;48.776;9.128;2023-04-29T08:23:35;0.90;;;0.90;;
10311;SDS011;5201;48.776;9.128;2023-04-29T08:26:04;0.80;;;0.80;;
10311;SDS011;5201;48.776;9.128;2023-04-29T08:28:29;1.03;;;1.00;;
10311;SDS011;5201;48.776;9.128;2023-04-29T08:30:55;1.50;;;1.10;;
10311;SDS011;5201;48.776;9.128;2023-04-29T08:33:21;1.40;;;1.30;;
10311;SDS011;5201;48.776;9.128;2023-04-29T08:35:46;1.60;;;1.27;;
10311;SDS011;5201;48.776;9.128;2023-04-29T08:38:12;1.53;;;1.43;;
10311;SDS011;5201;48.776;9.128;2023-04-29T08:40:42;1.67;;;1.57;;
10311;SDS011;5201;48.776;9.128;2023-04-29T08:43:12;1.73;;;1.50;;
10311;SDS011;5201;48.776;9.128;2023-04-29T08:45:39;3.07;;;1.77;;
10311;SDS011;5201;48.776;9.128;2023-04-29T08:48:06;1.43;;;1.33;;
10311;SDS011;5201;48.776;9.128;2023-04-29T08:50:36;1.47;;;1.23;;
10311;SDS011;5201;48.776;9.128;2023-04-29T08:53:05;1.90;;;1.47;;
10311;SDS011;5201;48.776;9.128;2023-04-29T08:55:34;1.23;;;1.00;;
10311;SDS011;5201;48.776;9.128;2023-04-29T08:58:10;1.57;;;1.47;;
10311;SDS011;5201;48.776;9.128;2023-04-29T09:00:37;1.23;;;1.17;;
10311;SDS011;5201;48.776;9.128;2023-04-29T09:03:15;4.63;;;1.63;;
10311;SDS011;5201;48.776;9.128;2023-04-29T09:05:44;5.93;;;1.60;;
10311;SDS011;5201;48.776;9.128;2023-04-29T09:08:13;1.53;;;1.43;;
10311;SDS011;5201;48.776;9.128;2023-04-29T09:10:41;1.57;;;1.47;;
10311;SDS011;5201;48.776;9.128;2023-04-29T09:13:06;1.47;;;1.37;;
10311;SDS011;5201;48.776;9.128;2023-04-29T09:15:35;1.73;;;1.63;;
10311;SDS011;5201;48.776;9.128;2023-04-29T09:18:02;2.60;;;1.73;;
10311;SDS011;5201;48.776;9.128;2023-04-29T09:20:28;1.87;;;1.70;;
10311;SDS011;5201;48.776;9.128;2023-04-29T09:22:55;1.43;;;1.33;;
10311;SDS011;5201;48.776;9.128;2023-04-29T09:25:28;2.73;;;1.70;;
10311;SDS011;5201;48.776;9.128;2023-04-29T09:27:55;1.43;;;1.33;;
10311;SDS011;5201;48.776;9.128;2023-04-29T09:30:21;1.13;;;1.03;;
10311;SDS011;5201;48.776;9.128;2023-04-29T09:33:06;1.90;;;1.30;;
10311;SDS011;5201;48.776;9.128;2023-04-29T09:35:33;2.53;;;1.53;;
10311;SDS011;5201;48.776;9.128;2023-04-29T09:38:12;1.90;;;1.50;;
10311;SDS011;5201;48.776;9.128;2023-04-29T09:40:39;1.73;;;1.30;;
10311;SDS011;5201;48.776;9.128;2023-04-29T09:43:15;1.30;;;1.20;;
10311;SDS011;5201;48.776;9.128;2023-04-29T09:45:46;1.97;;;1.20;;
10311;SDS011;5201;48.776;9.128;2023-04-29T09:48:12;1.50;;;1.40;;
10311;SDS011;5201;48.776;9.128;2023-04-29T09:50:40;1.80;;;1.60;;
10311;SDS011;5201;48.776;9.128;2023-04-29T09:53:07;2.37;;;1.90;;
10311;SDS011;5201;48.776;9.128;2023-04-29T09:55:35;1.97;;;1.53;;
10311;SDS011;5201;48.776;9.128;2023-04-29T09:58:01;3.10;;;1.93;;
10311;SDS011;5201;48.776;9.128;2023-04-29T10:00:29;1.67;;;1.57;;
10311;SDS011;5201;48.776;9.128;2023-04-29T10:02:58;1.47;;;1.37;;
10311;SDS011;5201;48.776;9.128;2023-04-29T10:05:28;4.53;;;1.50;;
10311;SDS011;5201;48.776;9.128;2023-04-29T10:07:54;2.87;;;1.20;;
10311;SDS011;5201;48.776;9.128;2023-04-29T10:10:21;0.80;;;0.80;;
10311;SDS011;5201;48.776;9.128;2023-04-29T10:12:48;1.30;;;1.00;;
10311;SDS011;5201;48.776;9.128;2023-04-29T10:15:19;3.73;;;0.90;;
10311;SDS011;5201;48.776;9.128;2023-04-29T10:20:33;1.67;;;1.00;;
10311;SDS011;5201;48.776;9.128;2023-04-29T10:23:01;4.00;;;1.10;;
10311;SDS011;5201;48.776;9.128;2023-04-29T10:25:27;1.17;;;1.03;;
10311;SDS011;5201;48.776;9.128;2023-04-29T10:27:54;1.43;;;1.30;;
10311;SDS011;5201;48.776;9.128;2023-04-29T10:30:20;3.10;;;1.30;;
10311;SDS011;5201;48.776;9.128;2023-04-29T10:32:47;1.10;;;0.90;;
10311;SDS011;5201;48.776;9.128;2023-04-29T10:35:14;2.73;;;1.20;;
10311;SDS011;5201;48.776;9.128;2023-04-29T10:37:40;3.67;;;1.40;;
10311;SDS011;5201;48.776;9.128;2023-04-29T10:40:11;1.40;;;1.30;;
10311;SDS011;5201;48.776;9.128;2023-04-29T10:42:42;2.27;;;1.50;;
10311;SDS011;5201;48.776;9.128;2023-04-29T10:45:30;3.27;;;1.20;;
10311;SDS011;5201;48.776;9.128;2023-04-29T10:50:33;1.83;;;1.40;;
10311;SDS011;5201;48.776;9.128;2023-04-29T10:53:03;1.67;;;1.33;;
10311;SDS011;5201;48.776;9.128;2023-04-29T10:55:30;1.27;;;1.00;;
10311;SDS011;5201;48.776;9.128;2023-04-29T10:57:56;1.03;;;1.00;;
10311;SDS011;5201;48.776;9.128;2023-04-29T11:00:31;1.43;;;1.17;;
10311;SDS011;5201;48.776;9.128;2023-04-29T11:02:59;1.23;;;1.00;;
10311;SDS011;5201;48.776;9.128;2023-04-29T11:08:10;1.80;;;1.20;;
10311;SDS011;5201;48.776;9.128;2023-04-29T11:10:40;1.50;;;1.40;;
10311;SDS011;5201;48.776;9.128;2023-04-29T11:13:25;2.57;;;1.00;;
10311;SDS011;5201;48.776;9.128;2023-04-29T11:15:53;1.20;;;0.97;;
10311;SDS011;5201;48.776;9.128;2023-04-29T11:18:29;1.50;;;0.90;;
10311;SDS011;5201;48.776;9.128;2023-04-29T11:23:36;0.87;;;0.80;;
10311;SDS011;5201;48.776;9.128;2023-04-29T11:26:03;1.33;;;0.90;;
10311;SDS011;5201;48.776;9.128;2023-04-29T11:28:29;1.33;;;1.13;;
10311;SDS011;5201;48.776;9.128;2023-04-29T11:30:56;10.40;;;2.60;;
10311;SDS011;5201;48.776;9.128;2023-04-29T11:33:22;3.53;;;0.93;;
10311;SDS011;5201;48.776;9.128;2023-04-29T11:35:49;3.33;;;0.90;;
10311;SDS011;5201;48.776;9.128;2023-04-29T11:38:15;18.37;;;6.17;;
10311;SDS011;5201;48.776;9.128;2023-04-29T11:40:42;0.90;;;0.90;;
10311;SDS011;5201;48.776;9.128;2023-04-29T11:43:17;3.70;;;1.00;;
10311;SDS011;5201;48.776;9.128;2023-04-29T11:45:46;2.30;;;0.70;;
10311;SDS011;5201;48.776;9.128;2023-04-29T11:48:22;9.30;;;3.30;;
10311;SDS011;5201;48.776;9.128;2023-04-29T11:50:50;14.30;;;3.90;;
10311;SDS011;5201;48.776;9.128;2023-04-29T11:53:23;4.67;;;1.57;;
10311;SDS011;5201;48.776;9.128;2023-04-29T11:55:52;6.97;;;3.40;;
10311;SDS011;5201;48.776;9.128;2023-04-29T11:58:22;2.27;;;2.07;;
10311;SDS011;5201;48.776;9.128;2023-04-29T12:00:48;6.87;;;2.83;;
10311;SDS011;5201;48.776;9.128;2023-04-29T12:03:16;2.40;;;2.17;;
10311;SDS011;5201;48.776;9.128;2023-04-29T12:05:46;3.97;;;2.37;;
10311;SDS011;5201;48.776;9.128;2023-04-29T12:08:18;5.77;;;2.47;;
10311;SDS011;5201;48.776;9.128;2023-04-29T12:10:44;2.37;;;2.17;;
10311;SDS011;5201;48.776;9.128;2023-04-29T12:13:11;2.30;;;2.07;;
10311;SDS011;5201;48.776;9.128;2023-04-29T12:15:37;5.83;;;3.00;;
10311;SDS011;5201;48.776;9.128;2023-04-29T12:18:03;3.67;;;2.80;;
10311;SDS011;5201;48.776;9.128;2023-04-29T12:20:29;4.30;;;2.97;;
10311;SDS011;5201;48.776;9.128;2023-04-29T12:22:55;5.27;;;2.83;;
10311;SDS011;5201;48.776;9.128;2023-04-29T12:25:26;5.73;;;3.37;;
10311;SDS011;5201;48.776;9.128;2023-04-29T12:27:57;5.70;;;3.53;;
10311;SDS011;5201;48.776;9.128;2023-04-29T12:30:24;6.20;;;3.23;;
10311;SDS011;5201;48.776;9.128;2023-04-29T12:32:50;8.57;;;3.53;;
10311;SDS011;5201;48.776;9.128;2023-04-29T12:35:16;4.33;;;2.87;;
10311;SDS011;5201;48.776;9.128;2023-04-29T12:37:42;3.23;;;2.93;;
10311;SDS011;5201;48.776;9.128;2023-04-29T12:40:14;7.30;;;3.23;;
10311;SDS011;5201;48.776;9.128;2023-04-29T12:42:44;3.90;;;2.97;;
10311;SDS011;5201;48.776;9.128;2023-04-29T12:45:29;4.27;;;3.43;;
10311;SDS011;5201;48.776;9.128;2023-04-29T12:47:56;4.83;;;3.53;;
10311;SDS011;5201;48.776;9.128;2023-04-29T12:50:29;4.00;;;3.33;;
10311;SDS011;5201;48.776;9.128;2023-04-29T12:53:02;5.73;;;3.80;;
10311;SDS011;5201;48.776;9.128;2023-04-29T12:55:30;4.33;;;3.03;;
10311;SDS011;5201;48.776;9.128;2023-04-29T12:57:56;4.63;;;3.40;;
10311;SDS011;5201;48.776;9.128;2023-04-29T13:00:22;6.07;;;3.63;;
10311;SDS011;5201;48.776;9.128;2023-04-29T13:02:48;4.47;;;3.70;;
10311;SDS011;5201;48.776;9.128;2023-04-29T13:05:13;3.53;;;2.90;;
10311;SDS011;5201;48.776;9.128;2023-04-29T13:07:39;3.80;;;3.27;;
10311;SDS011;5201;48.776;9.128;2023-04-29T13:10:05;4.37;;;3.00;;
10311;SDS011;5201;48.776;9.128;2023-04-29T13:12:32;4.30;;;3.07;;
10311;SDS011;5201;48.776;9.128;2023-04-29T13:14:58;9.43;;;4.00;;
10311;SDS011;5201;48.776;9.128;2023-04-29T13:17:23;4.67;;;4.03;;
10311;SDS011;5201;48.776;9.128;2023-04-29T13:19:49;4.90;;;3.77;;
10311;SDS011;5201;48.776;9.128;2023-04-29T13:22:15;5.87;;;3.67;;
10311;SDS011;5201;48.776;9.128;2023-04-29T13:24:41;6.93;;;4.07;;
10311;SDS011;5201;48.776;9.128;2023-04-29T13:27:07;5.87;;;4.80;;
10311;SDS011;5201;48.776;9.128;2023-04-29T13:29:33;5.20;;;3.80;;
10311;SDS011;5201;48.776;9.128;2023-04-29T13:31:58;4.50;;;3.67;;
10311;SDS011;5201;48.776;9.128;2023-04-29T13:34:24;8.63;;;4.43;;
10311;SDS011;5201;48.776;9.128;2023-04-29T13:36:49;8.03;;;5.30;;
10311;SDS011;5201;48.776;9.128;2023-04-29T13:39:15;7.03;;;4.50;;
10311;SDS011;5201;48.776;9.128;2023-04-29T13:41:41;7.80;;;4.67;;
10311;SDS011;5201;48.776;9.128;2023-04-29T13:44:07;6.40;;;4.73;;
10311;SDS011;5201;48.776;9.128;2023-04-29T13:46:32;5.97;;;3.53;;
10311;SDS011;5201;48.776;9.128;2023-04-29T13:48:58;7.47;;;4.20;;
10311;SDS011;5201;48.776;9.128;2023-04-29T13:51:24;5.97;;;4.27;;
10311;SDS011;5201;48.776;9.128;2023-04-29T13:53:49;5.33;;;4.60;;
10311;SDS011;5201;48.776;9.128;2023-04-29T13:56:15;4.97;;;3.80;;
10311;SDS011;5201;48.776;9.128;2023-04-29T13:58:40;6.87;;;4.37;;
10311;SDS011;5201;48.776;9.128;2023-04-29T14:01:06;6.97;;;4.17;;
10311;SDS011;5201;48.776;9.128;2023-04-29T14:03:32;5.20;;;4.17;;
10311;SDS011;5201;48.776;9.128;2023-04-29T14:05:58;5.97;;;4.10;;
10311;SDS011;5201;48.776;9.128;2023-04-29T14:08:23;6.77;;;3.97;;
10311;SDS011;5201;48.776;9.128;2023-04-29T14:10:49;8.97;;;4.37;;
10311;SDS011;5201;48.776;9.128;2023-04-29T14:13:15;6.10;;;4.00;;
10311;SDS011;5201;48.776;9.128;2023-04-29T14:15:41;11.73;;;3.97;;
10311;SDS011;5201;48.776;9.128;2023-04-29T14:18:07;7.10;;;4.27;;
10311;SDS011;5201;48.776;9.128;2023-04-29T14:20:34;7.83;;;3.97;;
10311;SDS011;5201;48.776;9.128;2023-04-29T14:23:00;11.10;;;5.50;;
10311;SDS011;5201;48.776;9.128;2023-04-29T14:25:25;8.53;;;4.70;;
10311;SDS011;5201;48.776;9.128;2023-04-29T14:27:51;13.53;;;4.97;;
10311;SDS011;5201;48.776;9.128;2023-04-29T14:30:17;8.03;;;4.70;;
10311;SDS011;5201;48.776;9.128;2023-04-29T14:32:42;8.17;;;4.87;;
10311;SDS011;5201;48.776;9.128;2023-04-29T14:35:08;6.90;;;4.77;;
10311;SDS011;5201;48.776;9.128;2023-04-29T14:37:34;6.10;;;4.30;;
10311;SDS011;5201;48.776;9.128;2023-04-29T14:39:59;7.37;;;4.40;;
10311;SDS011;5201;48.776;9.128;2023-04-29T14:42:25;6.53;;;4.53;;
10311;SDS011;5201;48.776;9.128;2023-04-29T14:44:51;7.40;;;4.43;;
10311;SDS011;5201;48.776;9.128;2023-04-29T14:47:18;7.03;;;4.50;;
10311;SDS011;5201;48.776;9.128;2023-04-29T14:49:43;4.50;;;3.63;;
10311;SDS011;5201;48.776;9.128;2023-04-29T14:52:09;5.63;;;3.83;;
10311;SDS011;5201;48.776;9.128;2023-04-29T14:54:35;5.77;;;4.47;;
10311;SDS011;5201;48.776;9.128;2023-04-29T14:57:00;7.33;;;4.90;;
10311;SDS011;5201;48.776;9.128;2023-04-29T14:59:26;8.17;;;4.50;;
10311;SDS011;5201;48.776;9.128;2023-04-29T15:01:54;6.47;;;4.07;;
10311;SDS011;5201;48.776;9.128;2023-04-29T15:04:22;6.10;;;4.40;;
10311;SDS011;5201;48.776;9.128;2023-04-29T15:06:48;13.10;;;5.00;;
10311;SDS011;5201;48.776;9.128;2023-04-29T15:09:14;7.03;;;5.27;;
10311;SDS011;5201;48.776;9.128;2023-04-29T15:11:40;5.87;;;4.60;;
10311;SDS011;5201;48.776;9.128;2023-04-29T15:14:06;6.80;;;4.53;;
10311;SDS011;5201;48.776;9.128;2023-04-29T15:16:31;5.73;;;4.73;;
10311;SDS011;5201;48.776;9.128;2023-04-29T15:18:58;6.30;;;4.20;;
10311;SDS011;5201;48.776;9.128;2023-04-29T15:21:24;5.23;;;4.03;;
10311;SDS011;5201;48.776;9.128;2023-04-29T15:23:51;4.93;;;4.30;;